createdAt,value
2019-06-10T00:00:41.861Z,20.23
2019-06-10T00:03:11.702Z,20.62
2019-06-10T00:05:41.515Z,22.85
2019-06-10T00:08:11.954Z,20.65
2019-06-10T00:10:42.077Z,20.50
2019-06-10T00:13:11.757Z,20.48
2019-06-10T00:15:41.163Z,20.65
2019-06-10T00:18:33.401Z,20.72
2019-06-10T00:20:41.124Z,21.25
2019-06-10T00:23:12.107Z,21.23
2019-06-10T00:25:42.390Z,22.42
2019-06-10T00:28:12.112Z,19.98
2019-06-10T00:30:41.395Z,20.20
2019-06-10T00:33:12.586Z,22.35
2019-06-10T00:35:41.362Z,24.02
2019-06-10T00:38:13.774Z,23.07
2019-06-10T00:40:41.663Z,23.95
2019-06-10T00:43:13.274Z,22.32
2019-06-10T00:45:41.420Z,22.10
2019-06-10T00:48:20.200Z,22.22
2019-06-10T00:50:41.451Z,22.50
2019-06-10T00:53:14.039Z,22.25
2019-06-10T00:55:41.715Z,21.62
2019-06-10T00:58:13.683Z,20.97
2019-06-10T01:00:41.744Z,23.10
2019-06-10T01:03:13.504Z,21.27
2019-06-10T01:05:42.202Z,21.85
2019-06-10T01:08:15.016Z,20.12
2019-06-10T01:10:43.829Z,22.40
2019-06-10T01:13:14.003Z,22.13
2019-06-10T01:15:43.095Z,22.22
2019-06-10T01:18:30.261Z,22.55
2019-06-10T01:20:42.434Z,22.87
2019-06-10T01:23:13.518Z,23.42
2019-06-10T01:25:42.464Z,24.18
2019-06-10T01:28:14.637Z,22.37
2019-06-10T01:30:41.685Z,21.85
2019-06-10T01:33:12.307Z,22.82
2019-06-10T01:35:41.608Z,24.92
2019-06-10T01:38:12.801Z,23.27
2019-06-10T01:40:42.327Z,23.10
2019-06-10T01:43:13.985Z,22.65
2019-06-10T01:45:42.293Z,24.15
2019-06-10T01:48:13.097Z,20.80
2019-06-10T01:50:41.462Z,22.58
2019-06-10T01:53:13.607Z,21.93
2019-06-10T01:55:41.810Z,23.30
2019-06-10T01:58:14.348Z,23.35
2019-06-10T02:00:55.104Z,21.85
2019-06-10T02:03:24.088Z,22.10
2019-06-10T02:05:52.757Z,24.75
2019-06-10T02:08:22.200Z,23.05
2019-06-10T02:10:51.122Z,23.75
2019-06-10T02:13:32.541Z,24.27
2019-06-10T02:16:02.553Z,25.75
2019-06-10T02:18:32.002Z,23.07
2019-06-10T02:21:01.397Z,27.93
2019-06-10T02:23:31.411Z,25.80
2019-06-10T02:26:01.645Z,25.00
2019-06-10T02:28:31.871Z,25.20
2019-06-10T02:31:02.982Z,30.52
2019-06-10T02:33:35.916Z,28.85
2019-06-10T02:36:04.010Z,30.97
2019-06-10T02:38:37.888Z,29.35
2019-06-10T02:41:04.084Z,30.48
2019-06-10T02:43:37.440Z,27.35
2019-06-10T02:46:04.649Z,28.10
2019-06-10T02:48:35.375Z,29.45
2019-06-10T02:51:08.146Z,28.27
2019-06-10T02:53:37.642Z,26.75
2019-06-10T02:56:07.386Z,28.07
2019-06-10T02:58:38.880Z,30.45
2019-06-10T03:01:06.937Z,26.33
2019-06-10T03:03:43.914Z,23.70
2019-06-10T03:06:08.650Z,26.12
2019-06-10T03:08:37.019Z,25.62
2019-06-10T03:11:06.110Z,25.95
2019-06-10T03:13:34.744Z,26.00
2019-06-10T03:16:13.120Z,28.00
2019-06-10T03:18:43.424Z,30.30
2019-06-10T03:21:12.471Z,28.95
2019-06-10T03:23:42.694Z,25.02
2019-06-10T03:26:12.338Z,25.65
2019-06-10T03:28:42.833Z,23.50
2019-06-10T03:31:15.191Z,24.40
2019-06-10T03:33:47.324Z,23.40
2019-06-10T03:36:12.596Z,21.93
2019-06-10T03:38:43.286Z,24.18
2019-06-10T03:41:12.425Z,21.07
2019-06-10T03:43:42.882Z,23.57
2019-06-10T03:46:13.664Z,25.45
2019-06-10T03:48:43.295Z,30.92
2019-06-10T03:51:12.702Z,27.87
2019-06-10T03:53:42.544Z,22.07
2019-06-10T03:56:12.802Z,21.42
2019-06-10T03:58:43.052Z,23.98
2019-06-10T04:01:12.414Z,25.20
2019-06-10T04:03:42.710Z,23.10
2019-06-10T04:06:12.895Z,22.85
2019-06-10T04:08:43.304Z,23.62
2019-06-10T04:11:12.404Z,25.62
2019-06-10T04:13:43.083Z,28.15
2019-06-10T04:16:12.994Z,27.95
2019-06-10T04:18:43.042Z,29.18
2019-06-10T04:21:12.938Z,25.10
2019-06-10T04:23:42.476Z,28.70
2019-06-10T04:26:12.736Z,30.90
2019-06-10T04:28:42.909Z,39.23
2019-06-10T04:31:13.089Z,36.80
2019-06-10T04:33:42.419Z,37.53
2019-06-10T04:36:13.331Z,39.78
2019-06-10T04:38:43.140Z,39.75
2019-06-10T04:41:12.627Z,33.98
2019-06-10T04:43:43.163Z,34.03
2019-06-10T04:46:12.600Z,31.05
2019-06-10T04:48:42.615Z,26.77
2019-06-10T04:51:12.919Z,28.83
2019-06-10T04:53:43.557Z,30.60
2019-06-10T04:56:12.427Z,26.93
2019-06-10T04:58:43.287Z,30.23
2019-06-10T05:01:12.356Z,22.90
2019-06-10T05:03:43.137Z,25.97
2019-06-10T05:06:12.300Z,21.73
2019-06-10T05:08:42.604Z,20.65
2019-06-10T05:11:12.834Z,17.00
2019-06-10T05:13:42.860Z,19.60
2019-06-10T05:16:12.510Z,17.62
2019-06-10T05:18:42.377Z,20.88
2019-06-10T05:21:13.049Z,17.50
2019-06-10T05:23:43.096Z,21.68
2019-06-10T05:26:13.294Z,18.25
2019-06-10T05:28:43.294Z,17.65
2019-06-10T05:31:12.983Z,19.23
2019-06-10T05:33:42.599Z,17.73
2019-06-10T05:36:13.251Z,19.07
2019-06-10T05:38:43.492Z,18.62
2019-06-10T05:41:13.373Z,16.27
2019-06-10T05:43:43.072Z,18.40
2019-06-10T05:46:13.406Z,16.85
2019-06-10T05:48:43.716Z,17.02
2019-06-10T05:51:12.764Z,18.75
2019-06-10T05:53:42.685Z,20.27
2019-06-10T05:56:12.916Z,17.62
2019-06-10T05:58:43.594Z,16.48
2019-06-10T06:01:13.192Z,15.25
2019-06-10T06:03:43.879Z,17.65
2019-06-10T06:06:12.710Z,18.77
2019-06-10T06:08:42.866Z,15.85
2019-06-10T06:11:12.696Z,15.80
2019-06-10T06:13:43.169Z,15.63
2019-06-10T06:16:12.601Z,16.73
2019-06-10T06:18:42.197Z,16.55
2019-06-10T06:21:22.403Z,14.45
2019-06-10T06:23:43.651Z,15.38
2019-06-10T06:26:16.215Z,15.23
2019-06-10T06:28:44.490Z,14.23
2019-06-10T06:31:13.146Z,14.97
2019-06-10T06:33:43.346Z,15.30
2019-06-10T06:36:12.639Z,17.85
2019-06-10T06:38:43.773Z,16.30
2019-06-10T06:41:13.666Z,16.23
2019-06-10T06:43:45.250Z,15.05
2019-06-10T06:46:13.058Z,14.45
2019-06-10T06:48:43.785Z,15.40
2019-06-10T06:51:13.060Z,14.90
2019-06-10T06:53:50.877Z,15.03
2019-06-10T06:56:12.764Z,16.23
2019-06-10T06:58:43.320Z,14.10
2019-06-10T07:01:14.713Z,16.07
2019-06-10T07:03:45.187Z,22.37
2019-06-10T07:06:14.718Z,15.75
2019-06-10T07:09:00.286Z,15.63
2019-06-10T07:11:18.022Z,16.45
2019-06-10T07:13:46.638Z,16.80
2019-06-10T07:16:15.262Z,15.75
2019-06-10T07:18:49.806Z,12.90
2019-06-10T07:21:14.348Z,14.03
2019-06-10T07:23:46.908Z,14.00
2019-06-10T07:26:13.419Z,13.05
2019-06-10T07:28:45.690Z,14.45
2019-06-10T07:31:23.139Z,14.10
2019-06-10T07:33:45.800Z,13.22
2019-06-10T07:36:13.409Z,14.15
2019-06-10T07:38:47.083Z,13.40
2019-06-10T07:41:12.676Z,14.45
2019-06-10T07:43:48.977Z,15.40
2019-06-10T07:46:13.385Z,16.45
2019-06-10T07:48:46.456Z,13.55
2019-06-10T07:51:13.287Z,15.20
2019-06-10T07:53:45.116Z,15.55
2019-06-10T07:56:13.018Z,14.03
2019-06-10T07:58:45.426Z,13.15
2019-06-10T08:01:13.223Z,11.97
2019-06-10T08:03:45.060Z,12.85
2019-06-10T08:06:12.788Z,12.93
2019-06-10T08:08:44.851Z,13.38
2019-06-10T08:11:13.619Z,12.63
2019-06-10T08:13:45.697Z,12.88
2019-06-10T08:16:13.208Z,15.35
2019-06-10T08:19:11.217Z,14.35
2019-06-10T08:21:12.548Z,13.27
2019-06-10T08:23:45.038Z,13.98
2019-06-10T08:26:12.728Z,12.63
2019-06-10T08:28:42.593Z,11.50
2019-06-10T08:31:12.472Z,11.93
2019-06-10T08:33:44.342Z,12.78
2019-06-10T08:36:13.506Z,12.13
2019-06-10T08:38:45.020Z,11.83
2019-06-10T08:41:12.503Z,11.75
2019-06-10T08:43:44.695Z,12.07
2019-06-10T08:46:13.178Z,11.08
2019-06-10T08:48:45.846Z,9.57
2019-06-10T08:51:12.659Z,10.10
2019-06-10T08:53:44.671Z,14.58
2019-06-10T08:56:13.128Z,10.70
2019-06-10T08:58:45.675Z,14.23
2019-06-10T09:01:13.316Z,12.33
2019-06-10T09:03:46.450Z,10.65
2019-06-10T09:06:13.227Z,11.12
2019-06-10T09:08:45.821Z,10.63
2019-06-10T09:11:13.069Z,11.20
2019-06-10T09:13:46.313Z,12.13
2019-06-10T09:16:18.555Z,12.47
2019-06-10T09:18:47.322Z,11.65
2019-06-10T09:21:13.085Z,11.93
2019-06-10T09:23:43.489Z,13.05
2019-06-10T09:26:12.583Z,11.68
2019-06-10T09:28:45.029Z,10.32
2019-06-10T09:31:13.981Z,10.30
2019-06-10T09:33:47.930Z,11.37
2019-06-10T09:36:12.687Z,10.13
2019-06-10T09:38:45.265Z,9.60
2019-06-10T09:41:14.166Z,9.55
2019-06-10T09:43:47.288Z,10.93
2019-06-10T09:46:14.688Z,10.58
2019-06-10T09:48:46.969Z,10.78
2019-06-10T09:51:13.878Z,10.73
2019-06-10T09:53:51.393Z,11.03
2019-06-10T09:56:13.022Z,11.18
2019-06-10T09:58:44.641Z,9.83
2019-06-10T10:01:13.389Z,10.32
2019-06-10T10:03:46.821Z,10.10
2019-06-10T10:06:15.789Z,13.00
2019-06-10T10:08:45.972Z,9.18
2019-06-10T10:11:13.587Z,10.45
2019-06-10T10:13:45.286Z,12.23
2019-06-10T10:16:13.246Z,10.98
2019-06-10T10:18:45.834Z,11.45
2019-06-10T10:21:13.194Z,11.53
2019-06-10T10:23:56.848Z,11.20
2019-06-10T10:26:13.278Z,12.07
2019-06-10T10:28:48.038Z,11.70
2019-06-10T10:31:15.239Z,11.30
2019-06-10T10:33:44.302Z,15.18
2019-06-10T10:36:14.189Z,10.35
2019-06-10T10:38:42.930Z,12.43
2019-06-10T10:41:13.305Z,11.28
2019-06-10T10:43:43.761Z,10.97
2019-06-10T10:46:13.785Z,10.57
2019-06-10T10:48:43.135Z,11.13
2019-06-10T10:51:12.990Z,10.98
2019-06-10T10:53:48.243Z,9.58
2019-06-10T10:56:13.059Z,9.83
2019-06-10T10:58:44.979Z,9.85
2019-06-10T11:01:14.934Z,9.67
2019-06-10T11:03:45.082Z,9.40
2019-06-10T11:06:13.339Z,8.98
2019-06-10T11:08:44.211Z,10.28
2019-06-10T11:11:13.931Z,11.10
2019-06-10T11:13:45.470Z,11.70
2019-06-10T11:16:14.545Z,10.70
2019-06-10T11:18:43.221Z,9.95
2019-06-10T11:21:13.309Z,9.25
2019-06-10T11:23:43.708Z,7.70
2019-06-10T11:26:13.248Z,9.33
2019-06-10T11:28:43.039Z,9.35
2019-06-10T11:31:13.732Z,8.98
2019-06-10T11:33:43.418Z,7.00
2019-06-10T11:36:13.497Z,7.75
2019-06-10T11:38:42.318Z,7.28
2019-06-10T11:41:13.376Z,10.30
2019-06-10T11:43:42.969Z,8.80
2019-06-10T11:46:13.162Z,8.05
2019-06-10T11:48:43.442Z,11.53
2019-06-10T11:51:13.280Z,9.93
2019-06-10T11:53:43.988Z,9.88
2019-06-10T11:56:13.205Z,8.07
2019-06-10T11:58:43.342Z,13.05
2019-06-10T12:01:13.100Z,11.97
2019-06-10T12:03:43.186Z,11.75
2019-06-10T12:06:13.541Z,10.85
2019-06-10T12:08:43.411Z,10.23
2019-06-10T12:11:13.015Z,14.33
2019-06-10T12:13:42.889Z,11.75
2019-06-10T12:17:11.332Z,10.48
2019-06-10T12:18:42.733Z,11.73
2019-06-10T12:21:13.227Z,10.68
2019-06-10T12:23:43.628Z,11.68
2019-06-10T12:26:12.415Z,9.67
2019-06-10T12:28:43.132Z,10.93
2019-06-10T12:31:13.430Z,9.80
2019-06-10T12:33:42.222Z,10.97
2019-06-10T12:36:12.790Z,18.35
2019-06-10T12:38:43.433Z,10.48
2019-06-10T12:41:13.942Z,9.00
2019-06-10T12:43:43.388Z,11.93
2019-06-10T12:46:12.902Z,13.40
2019-06-10T12:48:42.673Z,11.68
2019-06-10T12:51:13.879Z,11.28
2019-06-10T12:53:43.450Z,14.35
2019-06-10T12:56:14.866Z,11.75
2019-06-10T12:58:43.343Z,10.15
2019-06-10T13:01:12.258Z,12.03
2019-06-10T13:03:43.754Z,13.15
2019-06-10T13:06:12.878Z,10.88
2019-06-10T13:08:42.800Z,12.00
2019-06-10T13:11:13.386Z,16.90
2019-06-10T13:13:43.561Z,15.10
2019-06-10T13:16:14.205Z,10.13
2019-06-10T13:18:42.882Z,9.77
2019-06-10T13:21:17.204Z,10.15
2019-06-10T13:23:43.242Z,10.77
2019-06-10T13:26:15.985Z,11.85
2019-06-10T13:28:44.052Z,11.50
2019-06-10T13:31:14.001Z,9.87
2019-06-10T13:33:43.240Z,13.25
2019-06-10T13:36:12.869Z,13.93
2019-06-10T13:38:43.379Z,13.62
2019-06-10T13:41:11.989Z,9.58
2019-06-10T13:43:43.235Z,8.95
2019-06-10T13:46:11.152Z,9.67
2019-06-10T13:48:43.082Z,10.58
2019-06-10T13:51:15.208Z,14.95
2019-06-10T13:53:42.619Z,11.43
2019-06-10T13:56:32.003Z,10.90
2019-06-10T13:58:46.324Z,9.57
2019-06-10T14:01:21.102Z,10.37
2019-06-10T14:03:44.133Z,9.70
2019-06-10T14:06:28.460Z,12.20
2019-06-10T14:08:44.829Z,9.77
2019-06-10T14:11:14.267Z,14.43
2019-06-10T14:13:43.333Z,21.10
2019-06-10T14:16:15.072Z,17.82
2019-06-10T14:18:43.293Z,12.47
2019-06-10T14:21:17.994Z,21.60
2019-06-10T14:23:42.594Z,11.63
2019-06-10T14:26:14.783Z,11.75
2019-06-10T14:28:44.209Z,11.40
2019-06-10T14:31:33.685Z,8.37
2019-06-10T14:33:43.015Z,33.38
2019-06-10T14:36:15.065Z,19.70
2019-06-10T14:38:43.491Z,16.67
2019-06-10T14:41:12.347Z,13.70
2019-06-10T14:43:42.383Z,22.87
2019-06-10T14:46:14.344Z,12.98
2019-06-10T14:48:42.656Z,9.87
2019-06-10T14:51:14.901Z,13.70
2019-06-10T14:53:42.734Z,10.93
2019-06-10T14:56:15.979Z,11.15
2019-06-10T14:58:44.798Z,11.95
2019-06-10T15:01:22.050Z,11.35
2019-06-10T15:03:43.904Z,11.27
2019-06-10T15:06:13.504Z,13.60
2019-06-10T15:08:42.869Z,11.18
2019-06-10T15:11:11.759Z,13.95
2019-06-10T15:13:43.290Z,13.55
2019-06-10T15:16:12.189Z,13.73
2019-06-10T15:18:43.156Z,14.45
2019-06-10T15:21:11.413Z,11.88
2019-06-10T15:23:42.744Z,10.30
2019-06-10T15:26:13.131Z,12.33
2019-06-10T15:28:42.762Z,11.83
2019-06-10T15:31:13.500Z,12.68
2019-06-10T15:33:43.075Z,11.68
2019-06-10T15:36:13.102Z,13.83
2019-06-10T15:38:43.868Z,11.48
2019-06-10T15:41:16.032Z,11.73
2019-06-10T15:43:42.718Z,12.03
2019-06-10T15:46:14.594Z,11.90
2019-06-10T15:48:43.215Z,11.85
2019-06-10T15:51:15.378Z,11.80
2019-06-10T15:53:43.089Z,15.63
2019-06-10T15:56:23.749Z,10.82
2019-06-10T15:58:42.984Z,13.20
2019-06-10T16:01:14.470Z,11.45
2019-06-10T16:03:42.470Z,10.32
2019-06-10T16:06:12.133Z,13.48
2019-06-10T16:08:43.026Z,13.50
2019-06-10T16:11:16.312Z,12.00
2019-06-10T16:13:43.028Z,9.83
2019-06-10T16:16:12.804Z,12.43
2019-06-10T16:18:42.354Z,14.15
2019-06-10T16:21:13.365Z,11.33
2019-06-10T16:23:43.060Z,11.95
2019-06-10T16:26:13.078Z,10.10
2019-06-10T16:28:42.791Z,12.70
2019-06-10T16:31:13.162Z,15.53
2019-06-10T16:33:49.287Z,17.10
2019-06-10T16:36:12.389Z,12.30
2019-06-10T16:38:42.329Z,15.25
2019-06-10T16:41:12.316Z,15.40
2019-06-10T16:43:42.888Z,16.67
2019-06-10T16:46:11.612Z,16.50
2019-06-10T16:48:40.249Z,14.18
2019-06-10T16:51:09.170Z,13.58
2019-06-10T16:53:38.819Z,15.05
2019-06-10T16:56:07.442Z,15.55
2019-06-10T16:58:36.093Z,14.93
2019-06-10T17:01:04.732Z,18.50
2019-06-10T17:03:36.196Z,15.15
2019-06-10T17:08:33.826Z,14.85
2019-06-10T17:11:03.386Z,14.28
2019-06-10T17:13:32.316Z,13.75
2019-06-10T17:16:03.404Z,12.88
2019-06-10T17:18:33.660Z,13.08
2019-06-10T17:21:02.926Z,13.88
2019-06-10T17:23:36.188Z,13.55
2019-06-10T17:26:02.957Z,13.25
2019-06-10T17:28:36.361Z,14.23
2019-06-10T17:31:03.909Z,14.85
2019-06-10T17:33:35.483Z,14.45
2019-06-10T17:36:03.559Z,21.30
2019-06-10T17:38:32.293Z,15.53
2019-06-10T17:41:03.019Z,14.73
2019-06-10T17:43:34.015Z,11.73
2019-06-10T17:46:03.333Z,13.13
2019-06-10T17:48:33.620Z,12.50
2019-06-10T17:51:02.647Z,12.33
2019-06-10T17:53:34.634Z,16.82
2019-06-10T17:56:03.194Z,18.87
2019-06-10T17:58:47.618Z,18.95
2019-06-10T18:01:02.586Z,23.15
2019-06-10T18:03:31.417Z,20.12
2019-06-10T18:06:02.595Z,18.32
2019-06-10T18:08:32.341Z,18.60
2019-06-10T18:11:03.300Z,14.83
2019-06-10T18:13:33.095Z,15.13
2019-06-10T18:16:02.720Z,16.70
2019-06-10T18:18:35.642Z,16.82
2019-06-10T18:21:03.362Z,21.75
2019-06-10T18:23:33.073Z,15.35
2019-06-10T18:26:03.318Z,15.08
2019-06-10T18:28:45.572Z,16.05
2019-06-10T18:31:05.021Z,17.20
2019-06-10T18:33:36.051Z,20.40
2019-06-10T18:36:04.157Z,16.52
2019-06-10T18:38:35.601Z,16.50
2019-06-10T18:41:03.495Z,20.45
2019-06-10T18:43:33.790Z,17.73
2019-06-10T18:46:03.422Z,21.17
2019-06-10T18:48:35.969Z,24.77
2019-06-10T18:51:02.623Z,19.32
2019-06-10T18:53:33.503Z,23.52
2019-06-10T18:56:01.619Z,25.15
2019-06-10T18:58:32.989Z,25.82
2019-06-10T19:01:07.493Z,26.50
2019-06-10T19:03:33.410Z,23.55
2019-06-10T19:06:01.513Z,25.72
2019-06-10T19:08:33.970Z,35.35
2019-06-10T19:11:02.454Z,29.70
2019-06-10T19:13:33.688Z,38.90
2019-06-10T19:16:02.366Z,45.70
2019-06-10T19:18:31.891Z,41.85
2019-06-10T19:21:03.557Z,48.68
2019-06-10T19:23:33.411Z,167.72
2019-06-10T19:26:02.947Z,181.75
2019-06-10T19:28:33.863Z,88.97
2019-06-10T19:31:02.537Z,123.72
2019-06-10T19:33:33.919Z,148.68
2019-06-10T19:36:02.238Z,117.33
2019-06-10T19:38:32.419Z,74.17
2019-06-10T19:41:02.701Z,53.30
2019-06-10T19:43:34.959Z,59.38
2019-06-10T19:48:36.308Z,109.12
2019-06-10T19:51:03.270Z,110.88
2019-06-10T19:53:32.979Z,160.35
2019-06-10T19:56:02.637Z,132.20
2019-06-10T19:58:32.362Z,142.03
2019-06-10T20:01:01.090Z,91.32
2019-06-10T20:03:29.714Z,94.37
2019-06-10T20:05:58.361Z,78.02
2019-06-10T20:08:27.094Z,66.40
2019-06-10T20:10:55.745Z,66.22
2019-06-10T20:13:26.040Z,66.17
2019-06-10T20:15:54.663Z,74.75
2019-06-10T20:18:23.373Z,70.22
2019-06-10T20:20:54.001Z,65.62
2019-06-10T20:23:22.383Z,65.37
2019-06-10T20:25:52.695Z,69.07
2019-06-10T20:28:22.376Z,64.45
2019-06-10T20:30:52.974Z,72.35
2019-06-10T20:33:33.668Z,80.00
2019-06-10T20:36:03.507Z,93.97
2019-06-10T20:38:32.543Z,86.65
2019-06-10T20:41:02.622Z,121.42
2019-06-10T20:43:32.890Z,97.82
2019-06-10T20:46:04.381Z,76.22
2019-06-10T20:48:33.215Z,75.60
2019-06-10T20:51:02.899Z,56.45
2019-06-10T20:53:33.782Z,47.58
2019-06-10T20:56:03.823Z,47.33
2019-06-10T20:58:33.230Z,37.05
2019-06-10T21:01:04.357Z,38.08
2019-06-10T21:03:32.582Z,44.35
2019-06-10T21:06:03.375Z,41.40
2019-06-10T21:08:33.793Z,39.92
2019-06-10T21:11:03.714Z,42.40
2019-06-10T21:13:33.052Z,40.83
2019-06-10T21:16:03.543Z,43.25
2019-06-10T21:18:33.040Z,43.52
2019-06-10T21:21:02.003Z,33.98
2019-06-10T21:23:31.070Z,35.43
2019-06-10T21:26:02.530Z,37.10
2019-06-10T21:28:32.438Z,37.58
2019-06-10T21:31:02.828Z,35.52
2019-06-10T21:33:33.184Z,37.03
2019-06-10T21:36:03.971Z,32.95
2019-06-10T21:38:32.262Z,36.95
2019-06-10T21:41:03.311Z,38.83
2019-06-10T21:43:33.075Z,37.13
2019-06-10T21:46:03.618Z,44.90
2019-06-10T21:48:32.504Z,73.65
2019-06-10T21:51:01.203Z,76.00
2019-06-10T21:53:29.910Z,69.72
2019-06-10T21:55:58.562Z,73.42
2019-06-10T21:58:27.177Z,68.78
2019-06-10T22:01:09.806Z,66.12
2019-06-10T22:03:27.336Z,54.33
2019-06-10T22:05:56.061Z,51.30
2019-06-10T22:08:24.807Z,53.40
2019-06-10T22:10:56.173Z,46.73
2019-06-10T22:13:24.030Z,41.73
2019-06-10T22:15:54.779Z,46.48
2019-06-10T22:18:23.240Z,38.60
2019-06-10T22:20:55.977Z,43.13
2019-06-10T22:23:23.220Z,40.35
2019-06-10T22:25:54.339Z,37.90
2019-06-10T22:28:22.553Z,50.48
2019-06-10T22:30:54.095Z,45.28
2019-06-10T22:33:22.580Z,49.65
2019-06-10T22:35:55.391Z,53.45
2019-06-10T22:38:22.279Z,46.88
2019-06-10T22:40:53.668Z,46.68
2019-06-10T22:43:23.585Z,42.45
2019-06-10T22:45:53.852Z,32.70
2019-06-10T22:48:22.626Z,32.85
2019-06-10T22:50:51.367Z,32.93
2019-06-10T22:53:22.966Z,35.52
2019-06-10T22:55:53.034Z,29.48
2019-06-10T22:58:23.675Z,31.30
2019-06-10T23:00:53.230Z,31.93
2019-06-10T23:03:22.036Z,30.20
2019-06-10T23:05:52.244Z,30.72
2019-06-10T23:08:23.023Z,31.60
2019-06-10T23:10:53.739Z,30.02
2019-06-10T23:13:23.142Z,26.70
2019-06-10T23:15:54.008Z,25.62
2019-06-10T23:18:22.597Z,27.60
2019-06-10T23:20:55.407Z,51.68
2019-06-10T23:23:23.302Z,47.60
2019-06-10T23:25:53.695Z,40.15
2019-06-10T23:28:22.508Z,37.40
2019-06-10T23:30:55.375Z,32.08
2019-06-10T23:33:22.956Z,25.17
2019-06-10T23:35:52.567Z,25.60
2019-06-10T23:38:23.567Z,24.07
2019-06-10T23:40:52.773Z,23.40
2019-06-10T23:43:22.504Z,22.48
2019-06-10T23:45:51.452Z,21.37
2019-06-10T23:48:22.582Z,24.63
2019-06-10T23:50:54.055Z,24.95
2019-06-10T23:53:23.168Z,24.70
2019-06-10T23:55:53.422Z,24.85
2019-06-10T23:58:24.921Z,25.08
